Time;durP1;ratioP1;P1;durP2;ratioP2;P2;SDS_P1;SDS_P2;PMS_P1;PMS_P2;Temp;Humidity;BMP_temperature;BMP_pressure;BME280_temperature;BME280_humidity;BME280_pressure;Samples;Min_cycle;Max_cycle;Signal;HPM_P1;HPM_P2
2024/02/18 00:02:08;;;;;;;;;;;;;;;9.50;53.62;102547.44;4902616;28;98447;-69
2024/02/18 00:04:34;;;;;;;;;;;;;;;9.47;53.57;102547.84;4922177;28;98176;-69
2024/02/18 00:07:02;;;;;;;;;;;;;;;9.45;53.81;102545.38;4883463;28;98796;-67
2024/02/18 00:09:29;;;;;;;;;;;;;;;9.42;53.99;102551.16;4916189;28;98192;-69
2024/02/18 00:11:55;;;;;;;;;;;;;;;9.40;54.07;102555.94;4914290;28;98449;-69
2024/02/18 00:14:22;;;;;;;;;;;;;;;9.40;54.10;102558.63;4904229;28;97975;-69
2024/02/18 00:16:48;;;;;;;;;;;;;;;9.40;53.90;102555.13;4903478;28;98173;-66
2024/02/18 00:19:15;;;;;;;;;;;;;;;9.37;54.10;102553.66;4917780;28;98862;-69
2024/02/18 00:21:42;;;;;;;;;;;;;;;9.36;53.67;102548.50;4917523;28;97978;-66
2024/02/18 00:24:09;;;;;;;;;;;;;;;9.34;53.83;102546.81;4908618;28;98549;-69
2024/02/18 00:26:38;;;;;;;;;;;;;;;9.34;53.85;102543.31;4909660;28;98401;-69
2024/02/18 00:29:07;;;;;;;;;;;;;;;9.32;53.52;102551.59;4885663;28;98133;-66
2024/02/18 00:31:37;;;;;;;;;;;;;;;9.32;53.80;102553.47;4922969;28;98068;-66
2024/02/18 00:34:06;;;;;;;;;;;;;;;9.31;53.79;102547.25;4906507;28;98229;-66
2024/02/18 00:36:32;;;;;;;;;;;;;;;9.30;53.42;102553.66;4881693;28;98209;-66
2024/02/18 00:38:59;;;;;;;;;;;;;;;9.29;53.59;102545.81;4904770;28;100586;-69
2024/02/18 00:41:26;;;;;;;;;;;;;;;9.29;53.39;102540.44;4920651;28;99596;-69
2024/02/18 00:43:53;;;;;;;;;;;;;;;9.28;53.56;102542.28;4924951;28;98524;-69
2024/02/18 00:46:20;;;;;;;;;;;;;;;9.28;53.63;102546.84;4899300;28;98501;-66
2024/02/18 00:48:46;;;;;;;;;;;;;;;9.26;54.26;102549.72;4903050;28;101235;-69
2024/02/18 00:51:13;;;;;;;;;;;;;;;9.26;53.19;102546.22;4901343;28;98452;-66
2024/02/18 00:53:40;;;;;;;;;;;;;;;9.26;53.46;102551.59;4916386;28;99599;-69
2024/02/18 00:56:09;;;;;;;;;;;;;;;9.25;53.74;102544.56;4913742;28;98807;-69
2024/02/18 00:58:39;;;;;;;;;;;;;;;9.23;53.56;102549.31;4934065;28;98072;-66
2024/02/18 01:01:06;;;;;;;;;;;;;;;9.24;54.34;102540.22;4913701;28;98103;-69
2024/02/18 01:03:33;;;;;;;;;;;;;;;9.22;53.08;102532.34;4912588;28;98089;-69
2024/02/18 01:05:59;;;;;;;;;;;;;;;9.21;53.88;102530.69;4906726;28;98446;-69
2024/02/18 01:08:26;;;;;;;;;;;;;;;9.21;53.87;102537.94;4900776;28;98296;-69
2024/02/18 01:10:57;;;;;;;;;;;;;;;9.19;53.40;102531.94;4924782;28;97868;-66
2024/02/18 01:13:23;;;;;;;;;;;;;;;9.19;53.50;102531.94;4903582;28;98755;-69
2024/02/18 01:15:49;;;;;;;;;;;;;;;9.18;54.33;102524.91;4921489;28;98332;-69
2024/02/18 01:18:22;;;;;;;;;;;;;;;9.16;53.91;102527.00;4907644;28;98279;-67
2024/02/18 01:20:49;;;;;;;;;;;;;;;9.16;53.84;102524.31;4918545;28;98089;-66
2024/02/18 01:23:17;;;;;;;;;;;;;;;9.13;53.82;102516.63;4904962;28;98331;-66
2024/02/18 01:25:43;;;;;;;;;;;;;;;9.12;53.63;102512.25;4902348;28;98197;-69
2024/02/18 01:28:10;;;;;;;;;;;;;;;9.11;53.53;102511.44;4918506;28;98938;-68
2024/02/18 01:30:37;;;;;;;;;;;;;;;9.09;53.42;102522.44;4906320;28;98517;-66
2024/02/18 01:33:03;;;;;;;;;;;;;;;9.06;53.67;102511.25;4914748;28;98166;-69
2024/02/18 01:35:30;;;;;;;;;;;;;;;9.04;54.14;102513.34;4899521;28;98343;-66
2024/02/18 01:37:57;;;;;;;;;;;;;;;9.02;53.84;102518.06;4902562;28;98046;-68
2024/02/18 01:40:23;;;;;;;;;;;;;;;9.01;53.54;102517.25;4921745;28;98405;-68
2024/02/18 01:42:50;;;;;;;;;;;;;;;8.99;53.85;102510.41;4901356;28;98189;-68
2024/02/18 01:45:16;;;;;;;;;;;;;;;8.97;54.02;102515.19;4904651;28;98890;-66
2024/02/18 01:47:43;;;;;;;;;;;;;;;8.95;53.58;102512.69;4899798;28;98476;-68
2024/02/18 01:50:12;;;;;;;;;;;;;;;8.93;54.11;102517.47;4907741;28;98113;-66
2024/02/18 01:52:45;;;;;;;;;;;;;;;8.91;53.58;102507.94;4897549;28;99849;-66
2024/02/18 01:55:14;;;;;;;;;;;;;;;8.89;53.88;102521.59;4916902;28;100675;-66
2024/02/18 01:57:44;;;;;;;;;;;;;;;8.87;54.00;102520.13;4917994;28;99734;-66
2024/02/18 02:00:14;;;;;;;;;;;;;;;8.85;54.27;102528.44;4916636;28;98304;-66
2024/02/18 02:02:46;;;;;;;;;;;;;;;8.84;53.33;102529.44;4922082;28;98179;-66
2024/02/18 02:05:13;;;;;;;;;;;;;;;8.81;53.60;102533.38;4902187;28;100547;-66
2024/02/18 02:07:39;;;;;;;;;;;;;;;8.78;53.60;102535.66;4916746;28;98956;-69
2024/02/18 02:10:11;;;;;;;;;;;;;;;8.77;53.94;102531.31;4919889;28;98264;-68
2024/02/18 02:12:38;;;;;;;;;;;;;;;8.75;53.99;102531.50;4920544;28;99300;-69
2024/02/18 02:15:06;;;;;;;;;;;;;;;8.73;53.68;102533.59;4914710;28;98016;-66
2024/02/18 02:17:33;;;;;;;;;;;;;;;8.71;53.18;102532.94;4914097;28;98136;-68
2024/02/18 02:20:00;;;;;;;;;;;;;;;8.70;53.20;102535.84;4895075;28;98054;-66
2024/02/18 02:22:26;;;;;;;;;;;;;;;8.68;54.18;102536.03;4882031;28;98207;-66
2024/02/18 02:24:53;;;;;;;;;;;;;;;8.68;54.21;102543.28;4879014;28;97959;-68
2024/02/18 02:27:23;;;;;;;;;;;;;;;8.70;53.66;102535.84;4896376;28;98048;-68
2024/02/18 02:29:52;;;;;;;;;;;;;;;8.74;54.09;102535.25;4901575;28;98340;-66
2024/02/18 02:32:19;;;;;;;;;;;;;;;8.79;54.34;102537.31;4877620;28;99533;-69
2024/02/18 02:34:45;;;;;;;;;;;;;;;8.82;53.93;102531.53;4882652;28;98426;-66
2024/02/18 02:37:16;;;;;;;;;;;;;;;8.84;53.74;102522.22;4880614;28;99876;-66
2024/02/18 02:39:43;;;;;;;;;;;;;;;8.86;54.10;102527.38;4889256;28;98305;-66
2024/02/18 02:42:09;;;;;;;;;;;;;;;8.88;53.27;102529.84;4883909;28;98279;-68
2024/02/18 02:44:36;;;;;;;;;;;;;;;8.89;53.45;102531.53;4883546;28;98192;-68
2024/02/18 02:47:03;;;;;;;;;;;;;;;8.87;53.85;102526.34;4892992;28;98017;-66
2024/02/18 02:49:30;;;;;;;;;;;;;;;8.87;53.61;102523.66;4900427;28;98472;-69
2024/02/18 02:51:58;;;;;;;;;;;;;;;8.86;53.93;102508.56;4881887;28;98293;-66
2024/02/18 02:54:25;;;;;;;;;;;;;;;8.84;53.67;102516.84;4896212;28;98382;-66
2024/02/18 02:56:53;;;;;;;;;;;;;;;8.82;53.51;102523.47;4898899;28;98257;-66
2024/02/18 02:59:20;;;;;;;;;;;;;;;8.82;53.41;102521.59;4879222;28;99314;-69
2024/02/18 03:01:47;;;;;;;;;;;;;;;8.79;53.88;102519.31;4875728;28;98204;-65
2024/02/18 03:04:14;;;;;;;;;;;;;;;8.78;53.66;102523.03;4897333;28;99363;-68
2024/02/18 03:06:41;;;;;;;;;;;;;;;8.76;54.01;102527.81;4898750;28;99851;-68
2024/02/18 03:09:07;;;;;;;;;;;;;;;8.75;54.03;102528.00;4899402;28;97910;-69
2024/02/18 03:11:34;;;;;;;;;;;;;;;8.71;53.96;102516.81;4896013;28;99092;-66
2024/02/18 03:14:01;;;;;;;;;;;;;;;8.70;53.74;102511.66;4900069;28;97984;-66
2024/02/18 03:16:27;;;;;;;;;;;;;;;8.68;53.50;102517.22;4901482;28;98260;-68
2024/02/18 03:18:56;;;;;;;;;;;;;;;8.66;53.99;102511.25;4919830;28;99290;-66
2024/02/18 03:21:27;;;;;;;;;;;;;;;8.64;53.87;102509.78;4912689;28;98046;-66
2024/02/18 03:23:55;;;;;;;;;;;;;;;8.60;54.16;102499.44;4910166;28;98839;-69
2024/02/18 03:26:21;;;;;;;;;;;;;;;8.59;54.20;102508.53;4918417;28;99101;-68
2024/02/18 03:28:54;;;;;;;;;;;;;;;8.58;53.82;102506.06;4908268;28;98040;-66
2024/02/18 03:31:21;;;;;;;;;;;;;;;8.55;53.77;102506.47;4922597;28;98222;-66
2024/02/18 03:33:52;;;;;;;;;;;;;;;8.51;53.47;102497.97;4933617;28;98302;-66
2024/02/18 03:36:19;;;;;;;;;;;;;;;8.50;53.98;102490.13;4919424;28;98254;-68
2024/02/18 03:38:46;;;;;;;;;;;;;;;8.48;54.31;102484.94;4910624;28;98230;-69
2024/02/18 03:41:13;;;;;;;;;;;;;;;8.46;54.13;102487.00;4920080;28;98510;-66
2024/02/18 03:43:46;;;;;;;;;;;;;;;8.42;53.71;102472.34;4905692;28;98470;-66
2024/02/18 03:46:13;;;;;;;;;;;;;;;8.41;54.00;102475.19;4916199;28;98550;-66
2024/02/18 03:48:39;;;;;;;;;;;;;;;8.38;53.92;102478.31;4911572;28;100376;-66
2024/02/18 03:51:06;;;;;;;;;;;;;;;8.36;53.44;102478.47;4924375;28;98130;-66
2024/02/18 03:53:33;;;;;;;;;;;;;;;8.34;54.24;102486.75;4918146;28;98482;-68
2024/02/18 03:56:03;;;;;;;;;;;;;;;8.32;54.27;102486.13;4921470;28;98885;-66
2024/02/18 03:58:31;;;;;;;;;;;;;;;8.30;53.85;102488.19;4923163;28;98219;-68
2024/02/18 04:00:58;;;;;;;;;;;;;;;8.28;53.76;102484.88;4906239;28;98273;-68
2024/02/18 04:03:28;;;;;;;;;;;;;;;8.25;54.15;102487.13;4929455;28;98294;-66
2024/02/18 04:05:55;;;;;;;;;;;;;;;8.24;53.69;102483.63;4926261;28;98431;-68
2024/02/18 04:08:21;;;;;;;;;;;;;;;8.23;53.86;102478.47;4923864;28;98302;-68
2024/02/18 04:10:48;;;;;;;;;;;;;;;8.20;53.71;102479.69;4927095;28;97767;-68
2024/02/18 04:13:16;;;;;;;;;;;;;;;8.19;54.00;102482.59;4904338;28;98439;-66
2024/02/18 04:15:43;;;;;;;;;;;;;;;8.17;53.72;102473.88;4922058;28;100908;-68
2024/02/18 04:18:17;;;;;;;;;;;;;;;8.15;53.74;102468.72;4909350;28;99601;-66
2024/02/18 04:20:51;;;;;;;;;;;;;;;8.12;54.02;102474.50;4918493;28;99231;-66
2024/02/18 04:23:17;;;;;;;;;;;;;;;8.10;53.36;102477.41;4905320;28;98310;-68
2024/02/18 04:25:45;;;;;;;;;;;;;;;8.08;54.09;102468.69;4898920;28;98202;-66
2024/02/18 04:28:12;;;;;;;;;;;;;;;8.07;53.99;102468.91;4923305;28;98037;-68
2024/02/18 04:30:40;;;;;;;;;;;;;;;8.05;53.46;102460.22;4938265;28;98068;-66
2024/02/18 04:33:08;;;;;;;;;;;;;;;8.04;53.77;102458.56;4925127;28;98137;-66
2024/02/18 04:35:34;;;;;;;;;;;;;;;8.02;53.26;102453.41;4907981;28;98388;-68
2024/02/18 04:38:03;;;;;;;;;;;;;;;8.01;53.25;102445.53;4921412;28;98442;-66
2024/02/18 04:40:29;;;;;;;;;;;;;;;7.99;54.02;102452.97;4926010;28;98492;-68
2024/02/18 04:42:58;;;;;;;;;;;;;;;7.97;53.51;102453.16;4911273;28;101137;-66
2024/02/18 04:45:26;;;;;;;;;;;;;;;7.95;53.80;102457.09;4924688;28;98322;-65
2024/02/18 04:47:54;;;;;;;;;;;;;;;7.94;53.81;102455.41;4907234;28;98247;-65
2024/02/18 04:50:21;;;;;;;;;;;;;;;7.92;53.79;102454.81;4940184;28;98046;-68
2024/02/18 04:52:48;;;;;;;;;;;;;;;7.91;53.63;102461.22;4909943;28;98121;-68
2024/02/18 04:55:15;;;;;;;;;;;;;;;7.88;53.38;102459.75;4921134;28;98078;-66
2024/02/18 04:57:41;;;;;;;;;;;;;;;7.87;53.85;102456.25;4924543;28;98138;-68
2024/02/18 05:00:10;;;;;;;;;;;;;;;7.87;54.07;102444.69;4916051;28;98262;-68
2024/02/18 05:02:36;;;;;;;;;;;;;;;7.85;53.96;102444.84;4903429;28;99292;-68
2024/02/18 05:05:06;;;;;;;;;;;;;;;7.83;53.86;102452.31;4922353;28;98759;-66
2024/02/18 05:07:33;;;;;;;;;;;;;;;7.82;53.84;102453.34;4923884;28;99090;-68
2024/02/18 05:10:01;;;;;;;;;;;;;;;7.81;53.53;102462.41;4922604;28;98301;-69
2024/02/18 05:12:29;;;;;;;;;;;;;;;7.79;53.54;102456.41;4912537;28;99825;-66
2024/02/18 05:15:00;;;;;;;;;;;;;;;7.78;54.14;102461.97;4931625;28;99014;-66
2024/02/18 05:17:27;;;;;;;;;;;;;;;7.78;53.72;102470.03;4918401;28;98146;-66
2024/02/18 05:19:54;;;;;;;;;;;;;;;7.76;53.67;102462.19;4906066;28;98419;-68
2024/02/18 05:22:20;;;;;;;;;;;;;;;7.74;54.03;102469.63;4899575;28;98190;-66
2024/02/18 05:24:47;;;;;;;;;;;;;;;7.73;53.37;102481.38;4901949;28;105804;-69
2024/02/18 05:27:14;;;;;;;;;;;;;;;7.73;53.81;102481.38;4910944;28;98285;-69
2024/02/18 05:29:40;;;;;;;;;;;;;;;7.73;53.46;102476.00;4923581;28;98210;-69
2024/02/18 05:32:06;;;;;;;;;;;;;;;7.75;53.23;102462.41;4903659;28;99644;-69
2024/02/18 05:34:33;;;;;;;;;;;;;;;7.77;53.77;102460.31;4917835;28;98242;-66
2024/02/18 05:37:00;;;;;;;;;;;;;;;7.81;53.52;102453.53;4909118;28;100442;-66
2024/02/18 05:39:27;;;;;;;;;;;;;;;7.84;53.76;102443.22;4911277;28;98207;-66
2024/02/18 05:41:53;;;;;;;;;;;;;;;7.87;53.93;102445.50;4919534;28;98175;-66
2024/02/18 05:44:19;;;;;;;;;;;;;;;7.91;53.53;102445.94;4916274;28;99604;-69
2024/02/18 05:46:45;;;;;;;;;;;;;;;7.92;53.03;102431.47;4917544;28;98072;-66
2024/02/18 05:49:12;;;;;;;;;;;;;;;7.96;53.18;102429.19;4906207;28;99020;-69
2024/02/18 05:51:38;;;;;;;;;;;;;;;7.98;53.36;102425.28;4922108;28;98164;-69
2024/02/18 05:54:04;;;;;;;;;;;;;;;8.01;53.67;102422.19;4886009;28;98342;-66
2024/02/18 05:56:34;;;;;;;;;;;;;;;8.03;53.42;102425.50;4908610;28;98316;-66
2024/02/18 05:59:00;;;;;;;;;;;;;;;8.05;53.24;102433.34;4906105;28;97841;-66
2024/02/18 06:01:27;;;;;;;;;;;;;;;8.07;53.48;102442.88;4903644;28;98340;-66
2024/02/18 06:03:53;;;;;;;;;;;;;;;8.10;53.33;102438.97;4899714;28;98278;-64
2024/02/18 06:06:19;;;;;;;;;;;;;;;8.13;53.44;102441.22;4918363;28;98263;-67
2024/02/18 06:08:46;;;;;;;;;;;;;;;8.15;52.98;102447.22;4919136;28;98174;-64
2024/02/18 06:11:12;;;;;;;;;;;;;;;8.18;53.12;102449.53;4901276;28;98182;-67
2024/02/18 06:13:41;;;;;;;;;;;;;;;8.21;53.63;102448.25;4918145;28;99282;-67
2024/02/18 06:16:07;;;;;;;;;;;;;;;8.23;53.39;102433.59;4924741;28;99738;-67
2024/02/18 06:18:34;;;;;;;;;;;;;;;8.26;53.83;102440.44;4899445;28;98447;-64
2024/02/18 06:21:00;;;;;;;;;;;;;;;8.30;53.40;102441.69;4898721;28;98381;-64
2024/02/18 06:23:27;;;;;;;;;;;;;;;8.33;53.26;102439.44;4907193;28;98221;-67
2024/02/18 06:25:53;;;;;;;;;;;;;;;8.36;53.35;102447.06;4896144;28;98213;-67
2024/02/18 06:28:21;;;;;;;;;;;;;;;8.41;53.37;102451.00;4878264;28;98262;-64
2024/02/18 06:30:47;;;;;;;;;;;;;;;8.44;52.75;102446.06;4893945;28;100598;-65
2024/02/18 06:33:13;;;;;;;;;;;;;;;8.49;53.20;102445.44;4880628;28;98400;-64
2024/02/18 06:35:39;;;;;;;;;;;;;;;8.55;53.10;102450.00;4889282;28;98518;-69
2024/02/18 06:38:05;;;;;;;;;;;;;;;8.59;53.11;102462.81;4894822;28;98433;-68
2024/02/18 06:40:32;;;;;;;;;;;;;;;8.64;53.29;102456.81;4897564;28;98429;-65
2024/02/18 06:42:58;;;;;;;;;;;;;;;8.69;52.59;102451.69;4882040;28;98615;-68
2024/02/18 06:45:24;;;;;;;;;;;;;;;8.74;53.37;102457.25;4889786;28;98800;-68
2024/02/18 06:47:50;;;;;;;;;;;;;;;8.79;52.80;102454.75;4876473;28;98127;-64
2024/02/18 06:50:16;;;;;;;;;;;;;;;8.84;53.12;102451.44;4878795;28;98464;-65
2024/02/18 06:52:42;;;;;;;;;;;;;;;8.88;52.79;102444.63;4880191;28;98113;-68
2024/02/18 06:55:10;;;;;;;;;;;;;;;8.92;53.20;102440.50;4896415;28;99293;-65
2024/02/18 06:57:36;;;;;;;;;;;;;;;8.97;52.88;102440.69;4892711;28;98251;-65
2024/02/18 07:00:02;;;;;;;;;;;;;;;9.03;52.88;102437.16;4873431;28;98998;-68
2024/02/18 07:02:28;;;;;;;;;;;;;;;9.06;53.28;102434.06;4895913;28;98122;-65
2024/02/18 07:04:56;;;;;;;;;;;;;;;9.13;52.84;102452.88;4860891;28;100026;-65
2024/02/18 07:07:22;;;;;;;;;;;;;;;9.19;52.88;102452.03;4878513;28;101228;-68
2024/02/18 07:09:48;;;;;;;;;;;;;;;9.26;52.75;102450.16;4890811;28;98710;-65
2024/02/18 07:12:14;;;;;;;;;;;;;;;9.30;53.07;102442.50;4876222;28;98186;-65
2024/02/18 07:14:40;;;;;;;;;;;;;;;9.34;52.48;102441.03;4893484;28;98794;-65
2024/02/18 07:17:06;;;;;;;;;;;;;;;9.39;52.97;102449.28;4908663;28;98279;-68
2024/02/18 07:19:33;;;;;;;;;;;;;;;9.48;52.79;102442.66;4899052;28;102285;-68
2024/02/18 07:22:02;;;;;;;;;;;;;;;9.64;53.01;102441.34;4905952;28;98740;-65
2024/02/18 07:24:29;;;;;;;;;;;;;;;9.85;52.16;102442.91;4910329;28;99388;-67
2024/02/18 07:26:55;;;;;;;;;;;;;;;10.06;52.03;102434.53;4900757;28;98226;-64
2024/02/18 07:29:21;;;;;;;;;;;;;;;10.31;51.96;102423.81;4921033;28;98128;-68
2024/02/18 07:31:47;;;;;;;;;;;;;;;10.54;52.05;102420.53;4920028;28;98457;-65
2024/02/18 07:34:13;;;;;;;;;;;;;;;10.78;51.65;102424.25;4903166;28;98710;-65
2024/02/18 07:36:44;;;;;;;;;;;;;;;11.07;51.58;102416.50;4905797;28;98029;-65
2024/02/18 07:39:10;;;;;;;;;;;;;;;11.24;51.64;102404.09;4923609;28;98679;-68
2024/02/18 07:41:37;;;;;;;;;;;;;;;11.35;51.60;102398.97;4907647;28;98247;-65
2024/02/18 07:44:03;;;;;;;;;;;;;;;11.28;52.01;102399.88;4907839;28;98168;-65
2024/02/18 07:46:31;;;;;;;;;;;;;;;11.33;51.91;102401.09;4906705;28;98283;-65
2024/02/18 07:48:57;;;;;;;;;;;;;;;11.58;51.65;102390.19;4924297;28;103092;-68
2024/02/18 07:51:27;;;;;;;;;;;;;;;11.91;51.36;102381.66;4921007;28;98258;-68
2024/02/18 07:53:55;;;;;;;;;;;;;;;12.22;51.05;102384.09;4900545;28;98071;-68
2024/02/18 07:56:22;;;;;;;;;;;;;;;12.40;51.14;102372.34;4916719;28;98213;-65
2024/02/18 07:58:48;;;;;;;;;;;;;;;12.41;51.43;102368.59;4905224;28;99275;-68
2024/02/18 08:01:14;;;;;;;;;;;;;;;12.81;51.11;102364.38;4900476;28;97958;-68
2024/02/18 08:03:41;;;;;;;;;;;;;;;12.75;51.31;102369.66;4921153;28;98873;-68
2024/02/18 08:06:08;;;;;;;;;;;;;;;13.07;50.98;102363.06;4907674;28;98054;-68
2024/02/18 08:08:34;;;;;;;;;;;;;;;13.34;51.07;102363.38;4916825;28;98886;-68
2024/02/18 08:11:00;;;;;;;;;;;;;;;13.78;50.37;102367.22;4917344;28;97975;-65
2024/02/18 08:13:26;;;;;;;;;;;;;;;14.68;49.96;102360.06;4922507;28;111181;-68
2024/02/18 08:15:54;;;;;;;;;;;;;;;15.21;49.77;102351.28;4905867;28;98607;-65
2024/02/18 08:18:20;;;;;;;;;;;;;;;15.55;49.81;102347.56;4914551;28;99937;-68
2024/02/18 08:20:47;;;;;;;;;;;;;;;15.61;49.99;102349.28;4882740;28;100073;-68
2024/02/18 08:23:15;;;;;;;;;;;;;;;15.88;49.71;102339.25;4884525;28;102682;-66
2024/02/18 08:25:43;;;;;;;;;;;;;;;16.42;49.46;102335.59;4892417;28;98075;-68
2024/02/18 08:28:10;;;;;;;;;;;;;;;16.74;49.24;102334.72;4883511;28;98251;-68
2024/02/18 08:30:37;;;;;;;;;;;;;;;16.84;49.64;102335.63;4877922;28;100196;-68
2024/02/18 08:33:03;;;;;;;;;;;;;;;17.18;49.50;102329.78;4883016;28;98300;-68
2024/02/18 08:35:30;;;;;;;;;;;;;;;17.77;48.91;102334.88;4916443;28;97972;-65
2024/02/18 08:37:57;;;;;;;;;;;;;;;17.96;49.22;102329.72;4885582;28;98218;-68
2024/02/18 08:40:25;;;;;;;;;;;;;;;18.12;49.12;102333.25;4912012;28;99325;-65
2024/02/18 08:42:51;;;;;;;;;;;;;;;18.65;48.96;102325.53;4896314;28;99685;-68
2024/02/18 08:45:18;;;;;;;;;;;;;;;19.28;48.57;102323.13;4881849;28;98385;-69
2024/02/18 08:47:45;;;;;;;;;;;;;;;19.47;48.69;102319.75;4901522;28;98296;-69
2024/02/18 08:50:11;;;;;;;;;;;;;;;18.98;49.51;102317.78;4881238;28;98732;-68
2024/02/18 08:52:38;;;;;;;;;;;;;;;19.00;49.54;102308.22;4899678;28;97949;-68
2024/02/18 08:55:06;;;;;;;;;;;;;;;19.35;49.40;102307.25;4909620;28;98062;-69
2024/02/18 08:57:33;;;;;;;;;;;;;;;19.82;48.93;102303.13;4909432;28;98319;-68
2024/02/18 09:00:01;;;;;;;;;;;;;;;20.33;48.54;102304.59;4885345;28;102930;-68
2024/02/18 09:02:28;;;;;;;;;;;;;;;21.02;48.12;102302.47;4902269;28;98300;-66
2024/02/18 09:04:54;;;;;;;;;;;;;;;21.74;47.86;102314.09;4891802;28;99263;-66
2024/02/18 09:07:21;;;;;;;;;;;;;;;22.32;47.50;102307.34;4893799;28;98459;-69
2024/02/18 09:09:49;;;;;;;;;;;;;;;22.64;47.51;102308.44;4898029;28;99753;-65
2024/02/18 09:12:15;;;;;;;;;;;;;;;22.62;48.08;102314.22;4891931;28;98059;-69
2024/02/18 09:14:42;;;;;;;;;;;;;;;22.39;48.46;102310.53;4890528;28;99273;-69
2024/02/18 09:17:08;;;;;;;;;;;;;;;22.08;49.13;102303.91;4914022;28;98474;-69
2024/02/18 09:19:36;;;;;;;;;;;;;;;21.78;49.45;102301.41;4915295;28;98238;-66
2024/02/18 09:22:05;;;;;;;;;;;;;;;21.51;49.51;102285.63;4917310;28;98479;-69
2024/02/18 09:24:32;;;;;;;;;;;;;;;21.30;49.88;102287.03;4903715;28;98370;-69
2024/02/18 09:27:01;;;;;;;;;;;;;;;21.05;50.11;102283.50;4913907;28;98318;-66
2024/02/18 09:29:29;;;;;;;;;;;;;;;20.78;50.39;102275.91;4934976;28;99480;-68
2024/02/18 09:31:56;;;;;;;;;;;;;;;20.46;50.68;102270.22;4906423;28;98246;-69
2024/02/18 09:34:22;;;;;;;;;;;;;;;20.18;50.83;102275.44;4919929;28;99666;-66
2024/02/18 09:36:49;;;;;;;;;;;;;;;19.89;51.04;102264.50;4912674;28;98100;-65
2024/02/18 09:39:16;;;;;;;;;;;;;;;19.63;51.35;102272.09;4900096;28;100394;-66
2024/02/18 09:41:45;;;;;;;;;;;;;;;19.59;51.12;102266.34;4917052;28;98867;-69
2024/02/18 09:44:13;;;;;;;;;;;;;;;19.67;50.91;102258.66;4901799;28;98654;-65
2024/02/18 09:46:42;;;;;;;;;;;;;;;20.05;50.25;102263.25;4903758;28;98138;-65
2024/02/18 09:49:09;;;;;;;;;;;;;;;20.25;50.08;102253.22;4906575;28;98125;-65
2024/02/18 09:51:36;;;;;;;;;;;;;;;20.22;50.22;102251.84;4915398;28;98359;-68
2024/02/18 09:54:06;;;;;;;;;;;;;;;20.24;50.16;102249.66;4920707;28;97977;-68
2024/02/18 09:56:33;;;;;;;;;;;;;;;20.63;49.91;102253.34;4924740;28;98268;-66
2024/02/18 09:58:59;;;;;;;;;;;;;;;20.86;49.64;102238.81;4931517;28;98289;-65
2024/02/18 10:01:26;;;;;;;;;;;;;;;20.90;49.83;102245.31;4900846;28;98235;-67
2024/02/18 10:03:54;;;;;;;;;;;;;;;20.78;50.15;102234.78;4887526;28;98413;-65
2024/02/18 10:06:21;;;;;;;;;;;;;;;20.70;50.20;102237.38;4899865;28;98142;-67
2024/02/18 10:08:51;;;;;;;;;;;;;;;20.84;49.99;102241.84;4915475;28;98010;-65
2024/02/18 10:11:21;;;;;;;;;;;;;;;21.09;49.62;102237.13;4901723;28;98174;-65
2024/02/18 10:13:48;;;;;;;;;;;;;;;21.51;49.41;102240.94;4902917;28;98450;-66
2024/02/18 10:16:17;;;;;;;;;;;;;;;21.88;48.83;102223.56;4904827;28;98112;-69
2024/02/18 10:18:45;;;;;;;;;;;;;;;22.10;48.87;102227.56;4918133;28;98671;-69
2024/02/18 10:21:14;;;;;;;;;;;;;;;22.33;48.78;102221.13;4898448;28;98123;-66
2024/02/18 10:23:42;;;;;;;;;;;;;;;23.10;47.97;102214.81;4905861;28;98134;-69
2024/02/18 10:26:09;;;;;;;;;;;;;;;24.02;47.04;102206.25;4919145;28;98628;-69
2024/02/18 10:28:36;;;;;;;;;;;;;;;24.78;46.40;102206.00;4899772;28;98281;-66
2024/02/18 10:31:09;;;;;;;;;;;;;;;25.86;45.85;102199.50;4906107;28;98208;-69
2024/02/18 10:33:36;;;;;;;;;;;;;;;26.59;45.28;102196.53;4906510;28;98667;-66
2024/02/18 10:36:07;;;;;;;;;;;;;;;27.18;44.94;102198.41;4906679;28;98703;-66
2024/02/18 10:38:35;;;;;;;;;;;;;;;27.54;45.34;102191.38;4906093;28;98932;-66
2024/02/18 10:41:03;;;;;;;;;;;;;;;28.70;44.27;102181.78;4924319;28;99308;-69
2024/02/18 10:43:32;;;;;;;;;;;;;;;29.21;44.41;102181.31;4912413;28;99114;-69
2024/02/18 10:46:03;;;;;;;;;;;;;;;29.01;45.08;102180.34;4887799;28;100899;-69
2024/02/18 10:48:31;;;;;;;;;;;;;;;28.38;45.72;102176.06;4919211;28;99005;-69
2024/02/18 10:50:58;;;;;;;;;;;;;;;27.91;46.55;102164.59;4920452;28;98110;-69
2024/02/18 10:53:34;;;;;;;;;;;;;;;27.68;47.05;102153.13;4937599;28;98018;-66
2024/02/18 10:56:21;;;;;;;;;;;;;;;27.48;47.12;102145.69;4920454;28;98331;-69
2024/02/18 10:59:13;;;;;;;;;;;;;;;27.40;46.88;102141.88;4922632;28;98864;-68
2024/02/18 11:01:47;;;;;;;;;;;;;;;26.96;47.48;102143.41;4908838;28;98182;-69
2024/02/18 11:04:14;;;;;;;;;;;;;;;26.42;48.34;102128.34;4920456;28;98161;-65
2024/02/18 11:06:42;;;;;;;;;;;;;;;26.36;48.37;102128.88;4902342;28;98173;-68
2024/02/18 11:09:11;;;;;;;;;;;;;;;26.12;48.52;102127.53;4921784;28;99176;-65
2024/02/18 11:11:38;;;;;;;;;;;;;;;25.50;49.14;102124.53;4930438;28;98222;-69
2024/02/18 11:14:05;;;;;;;;;;;;;;;25.00;49.40;102114.88;4920170;28;98363;-69
2024/02/18 11:16:32;;;;;;;;;;;;;;;24.40;50.28;102115.63;4905613;28;98492;-68
2024/02/18 11:19:03;;;;;;;;;;;;;;;23.73;50.88;102098.22;4899804;28;117833;-65
2024/02/18 11:21:30;;;;;;;;;;;;;;;23.25;51.18;102101.69;4924536;28;98009;-70
2024/02/18 11:23:58;;;;;;;;;;;;;;;22.91;51.13;102090.44;4914952;28;99757;-65
2024/02/18 11:26:26;;;;;;;;;;;;;;;22.52;51.55;102086.38;4935649;28;98344;-68
2024/02/18 11:28:52;;;;;;;;;;;;;;;22.13;51.69;102076.78;4907899;28;98885;-65
2024/02/18 11:31:24;;;;;;;;;;;;;;;21.87;51.71;102078.41;4902717;28;98469;-68
2024/02/18 11:33:52;;;;;;;;;;;;;;;21.69;51.58;102078.19;4933576;28;98047;-64
2024/02/18 11:36:19;;;;;;;;;;;;;;;21.66;51.42;102067.03;4916073;28;99184;-65
2024/02/18 11:38:46;;;;;;;;;;;;;;;21.82;51.00;102062.84;4923693;28;99755;-68
2024/02/18 11:41:20;;;;;;;;;;;;;;;22.00;50.71;102063.84;4950346;28;98586;-65
2024/02/18 11:43:53;;;;;;;;;;;;;;;22.25;50.76;102048.81;4941375;28;100343;-69
2024/02/18 11:46:26;;;;;;;;;;;;;;;22.42;50.61;102048.16;4917092;28;98656;-69
2024/02/18 11:48:54;;;;;;;;;;;;;;;22.57;50.38;102045.06;4921216;28;98365;-65
2024/02/18 11:51:21;;;;;;;;;;;;;;;22.62;50.25;102039.44;4933908;28;98758;-65
2024/02/18 11:53:50;;;;;;;;;;;;;;;22.46;50.59;102032.66;4933605;28;98189;-65
2024/02/18 11:56:16;;;;;;;;;;;;;;;22.18;51.05;102027.25;4934340;28;102698;-69
2024/02/18 11:58:48;;;;;;;;;;;;;;;21.99;51.01;102024.59;4909064;28;98583;-65
2024/02/18 12:01:19;;;;;;;;;;;;;;;21.97;51.11;102017.81;4905679;28;99720;-65
2024/02/18 12:03:48;;;;;;;;;;;;;;;21.86;51.05;102008.16;4906021;28;98090;-69
2024/02/18 12:06:17;;;;;;;;;;;;;;;21.97;51.12;102006.84;4920251;28;98091;-65
2024/02/18 12:08:43;;;;;;;;;;;;;;;21.97;50.81;101995.84;4925579;28;98363;-68
2024/02/18 12:11:09;;;;;;;;;;;;;;;21.97;50.95;101995.84;4916237;28;98202;-65
2024/02/18 12:13:37;;;;;;;;;;;;;;;21.96;50.85;101988.72;4943903;28;98469;-69
2024/02/18 12:16:07;;;;;;;;;;;;;;;21.90;51.07;101985.28;4909874;28;98502;-70
2024/02/18 12:18:33;;;;;;;;;;;;;;;21.80;50.88;101980.81;4899153;28;104026;-66
2024/02/18 12:21:00;;;;;;;;;;;;;;;21.67;51.02;101978.09;4919444;28;98436;-65
2024/02/18 12:23:27;;;;;;;;;;;;;;;21.45;51.42;101973.31;4921001;28;98488;-69
2024/02/18 12:25:55;;;;;;;;;;;;;;;21.21;51.42;101971.53;4899015;28;98011;-65
2024/02/18 12:28:21;;;;;;;;;;;;;;;21.00;51.66;101962.91;4928665;28;99187;-65
2024/02/18 12:30:48;;;;;;;;;;;;;;;20.81;51.79;101954.72;4905147;28;99598;-68
2024/02/18 12:33:15;;;;;;;;;;;;;;;20.69;51.83;101953.59;4918412;28;97972;-69
2024/02/18 12:35:41;;;;;;;;;;;;;;;20.56;51.97;101952.44;4902134;28;99752;-65
2024/02/18 12:38:09;;;;;;;;;;;;;;;20.48;52.10;101950.34;4903708;28;100186;-69
2024/02/18 12:40:37;;;;;;;;;;;;;;;20.42;52.05;101944.13;4903223;28;98399;-70
2024/02/18 12:43:04;;;;;;;;;;;;;;;20.34;52.19;101934.66;4923682;28;98235;-69